Ashton, Idaho
Current Conditions -  °F | °C
As of 1:53 AM on Friday 28 Nov 2014 (Local Time) from KRXE Reporting Station
Few Clouds Few Clouds  
Wind Chill: 41°   Ceiling: Unl
Heat Index: 47°   Visibility: 10mi
Dew Point: 26°   Wind: 13mph
Humidity: 44%   Direction: 190°S
Pressure: 29.98"   Gusts: NA
Location:  44.07°N, 111.45°W
Report Text: KRXE 280853Z AUTO 19011KT 10SM FEW120 08/M03 A2998 RMK AO2 SLP135 T00831033 56018
Loading
Personal Weather Stations






























Interactive Weather Map New forecast layout! Learn more

10-Day Weather Forecast

Advertisements
Track Severe Weather on mobile